createdAt,value
2023-08-21T00:00:55.974Z,619.00
2023-08-21T00:01:55.988Z,617.00
2023-08-21T00:02:56.176Z,620.00
2023-08-21T00:03:56.125Z,615.00
2023-08-21T00:04:56.151Z,615.00
2023-08-21T00:05:56.178Z,616.00
2023-08-21T00:06:56.203Z,615.00
2023-08-21T00:07:56.233Z,612.00
2023-08-21T00:08:56.289Z,615.00
2023-08-21T00:09:56.290Z,615.00
2023-08-21T00:10:56.363Z,616.00
2023-08-21T00:11:56.370Z,621.00
2023-08-21T00:12:56.407Z,618.00
2023-08-21T00:13:56.473Z,617.00
2023-08-21T00:14:56.505Z,619.00
2023-08-21T00:15:56.598Z,614.00
2023-08-21T00:16:56.699Z,625.00
2023-08-21T00:17:56.724Z,618.00
2023-08-21T00:18:56.753Z,618.00
2023-08-21T00:19:56.815Z,615.00
2023-08-21T00:20:56.854Z,627.00
2023-08-21T00:21:56.923Z,616.00
2023-08-21T00:22:56.984Z,616.00
2023-08-21T00:23:57.021Z,620.00
2023-08-21T00:24:57.079Z,616.00
2023-08-21T00:25:57.082Z,621.00
2023-08-21T00:26:57.132Z,619.00
2023-08-21T00:27:57.161Z,615.00
2023-08-21T00:28:57.201Z,620.00
2023-08-21T00:29:57.237Z,625.00
2023-08-21T00:30:57.292Z,621.00
2023-08-21T00:31:57.317Z,616.00
2023-08-21T00:32:57.425Z,619.00
2023-08-21T00:33:57.424Z,621.00
2023-08-21T00:34:57.445Z,627.00
2023-08-21T00:35:57.546Z,618.00
2023-08-21T00:36:57.525Z,615.00
2023-08-21T00:37:57.570Z,623.00
2023-08-21T00:38:57.629Z,620.00
2023-08-21T00:39:57.688Z,621.00
2023-08-21T00:40:57.740Z,619.00
2023-08-21T00:41:57.775Z,621.00
2023-08-21T00:42:57.836Z,620.00
2023-08-21T00:43:57.862Z,623.00
2023-08-21T00:44:57.925Z,618.00
2023-08-21T00:45:58.014Z,625.00
2023-08-21T00:46:58.029Z,620.00
2023-08-21T00:47:58.139Z,622.00
2023-08-21T00:48:58.108Z,622.00
2023-08-21T00:49:58.159Z,623.00
2023-08-21T00:50:58.204Z,624.00
2023-08-21T00:51:58.268Z,620.00
2023-08-21T00:52:58.308Z,618.00
2023-08-21T00:53:58.316Z,621.00
2023-08-21T00:54:58.354Z,619.00
2023-08-21T00:55:58.439Z,627.00
2023-08-21T00:56:58.483Z,620.00
2023-08-21T00:57:58.512Z,622.00
2023-08-21T00:58:58.554Z,617.00
2023-08-21T00:59:58.600Z,620.00
2023-08-21T01:00:59.499Z,618.00
2023-08-21T01:01:58.709Z,619.00
2023-08-21T01:02:58.818Z,618.00
2023-08-21T01:03:58.755Z,624.00
2023-08-21T01:04:58.824Z,621.00
2023-08-21T01:05:58.846Z,623.00
2023-08-21T01:06:58.908Z,625.00
2023-08-21T01:07:58.931Z,618.00
2023-08-21T01:08:58.983Z,622.00
2023-08-21T01:09:59.018Z,623.00
2023-08-21T01:10:59.097Z,623.00
2023-08-21T01:11:59.146Z,623.00
2023-08-21T01:12:59.172Z,622.00
2023-08-21T01:13:59.174Z,624.00
2023-08-21T01:14:59.213Z,627.00
2023-08-21T01:15:59.226Z,618.00
2023-08-21T01:16:59.503Z,619.00
2023-08-21T01:17:59.542Z,625.00
2023-08-21T01:18:59.255Z,625.00
2023-08-21T01:19:59.280Z,622.00
2023-08-21T01:20:59.351Z,622.00
2023-08-21T01:21:59.321Z,621.00
2023-08-21T01:22:59.367Z,628.00
2023-08-21T01:23:59.382Z,622.00
2023-08-21T01:24:59.388Z,625.00
2023-08-21T01:25:59.412Z,627.00
2023-08-21T01:26:59.439Z,620.00
2023-08-21T01:27:59.477Z,625.00
2023-08-21T01:28:59.498Z,623.00
2023-08-21T01:29:59.546Z,627.00
2023-08-21T01:30:59.574Z,629.00
2023-08-21T01:31:59.719Z,622.00
2023-08-21T01:32:59.633Z,624.00
2023-08-21T01:33:59.630Z,625.00
2023-08-21T01:34:59.649Z,624.00
2023-08-21T01:35:59.673Z,624.00
2023-08-21T01:36:59.706Z,628.00
2023-08-21T01:37:59.737Z,626.00
2023-08-21T01:38:59.771Z,627.00
2023-08-21T01:39:59.806Z,620.00
2023-08-21T01:40:59.820Z,627.00
2023-08-21T01:41:59.848Z,626.00
2023-08-21T01:42:59.876Z,631.00
2023-08-21T01:43:59.914Z,623.00
2023-08-21T01:44:59.941Z,626.00
2023-08-21T01:46:00.011Z,625.00
2023-08-21T01:47:00.039Z,623.00
2023-08-21T01:48:00.113Z,629.00
2023-08-21T01:49:00.057Z,626.00
2023-08-21T01:50:00.086Z,624.00
2023-08-21T01:51:00.067Z,630.00
2023-08-21T01:52:00.151Z,623.00
2023-08-21T01:53:00.103Z,623.00
2023-08-21T01:54:00.120Z,628.00
2023-08-21T01:55:00.197Z,628.00
2023-08-21T01:56:00.143Z,625.00
2023-08-21T01:57:00.142Z,627.00
2023-08-21T01:58:00.155Z,624.00
2023-08-21T01:59:00.168Z,621.00
2023-08-21T02:00:00.271Z,628.00
2023-08-21T02:01:00.252Z,624.00
2023-08-21T02:02:00.236Z,625.00
2023-08-21T02:03:00.429Z,631.00
2023-08-21T02:04:00.273Z,625.00
2023-08-21T02:05:00.292Z,622.00
2023-08-21T02:06:00.290Z,627.00
2023-08-21T02:07:00.279Z,623.00
2023-08-21T02:08:00.386Z,628.00
2023-08-21T02:09:00.299Z,627.00
2023-08-21T02:10:00.299Z,624.00
2023-08-21T02:11:00.284Z,631.00
2023-08-21T02:12:00.297Z,632.00
2023-08-21T02:13:00.298Z,622.00
2023-08-21T02:14:00.301Z,627.00
2023-08-21T02:15:00.296Z,626.00
2023-08-21T02:16:00.308Z,627.00
2023-08-21T02:17:00.312Z,621.00
2023-08-21T02:18:00.441Z,628.00
2023-08-21T02:19:00.405Z,630.00
2023-08-21T02:20:00.422Z,625.00
2023-08-21T02:21:00.464Z,626.00
2023-08-21T02:22:00.488Z,628.00
2023-08-21T02:23:00.534Z,628.00
2023-08-21T02:24:00.555Z,621.00
2023-08-21T02:25:00.597Z,631.00
2023-08-21T02:26:00.635Z,629.00
2023-08-21T02:27:00.680Z,628.00
2023-08-21T02:28:00.726Z,623.00
2023-08-21T02:29:00.778Z,624.00
2023-08-21T02:30:00.817Z,633.00
2023-08-21T02:31:00.894Z,627.00
2023-08-21T02:32:00.912Z,623.00
2023-08-21T02:33:01.003Z,626.00
2023-08-21T02:34:00.997Z,630.00
2023-08-21T02:35:01.025Z,627.00
2023-08-21T02:36:01.056Z,639.00
2023-08-21T02:37:01.096Z,629.00
2023-08-21T02:38:01.139Z,626.00
2023-08-21T02:39:01.195Z,625.00
2023-08-21T02:40:01.238Z,630.00
2023-08-21T02:41:01.277Z,623.00
2023-08-21T02:42:01.295Z,621.00
2023-08-21T02:43:01.314Z,625.00
2023-08-21T02:44:01.336Z,625.00
2023-08-21T02:45:01.381Z,628.00
2023-08-21T02:46:01.382Z,630.00
2023-08-21T02:47:01.364Z,629.00
2023-08-21T02:48:01.417Z,626.00
2023-08-21T02:49:01.355Z,629.00
2023-08-21T02:50:01.368Z,629.00
2023-08-21T02:51:02.483Z,630.00
2023-08-21T02:52:01.363Z,632.00
2023-08-21T02:53:01.362Z,628.00
2023-08-21T02:54:01.350Z,626.00
2023-08-21T02:55:01.334Z,630.00
2023-08-21T02:56:01.343Z,631.00
2023-08-21T02:57:01.336Z,634.00
2023-08-21T02:58:01.338Z,632.00
2023-08-21T02:59:01.309Z,633.00
2023-08-21T03:00:01.327Z,629.00
2023-08-21T03:01:01.367Z,629.00
2023-08-21T03:02:01.354Z,629.00
2023-08-21T03:03:01.315Z,620.00
2023-08-21T03:04:01.287Z,631.00
2023-08-21T03:05:01.274Z,635.00
2023-08-21T03:06:01.277Z,627.00
2023-08-21T03:07:01.266Z,629.00
2023-08-21T03:08:01.266Z,628.00
2023-08-21T03:09:01.279Z,633.00
2023-08-21T03:10:01.243Z,634.00
2023-08-21T03:11:01.267Z,632.00
2023-08-21T03:12:01.235Z,629.00
2023-08-21T03:13:01.234Z,632.00
2023-08-21T03:14:01.232Z,628.00
2023-08-21T03:15:01.230Z,634.00
2023-08-21T03:16:01.230Z,630.00
2023-08-21T03:17:01.199Z,630.00
2023-08-21T03:18:01.253Z,626.00
2023-08-21T03:19:01.189Z,631.00
2023-08-21T03:20:01.236Z,634.00
2023-08-21T03:21:01.184Z,630.00
2023-08-21T03:22:01.174Z,630.00
2023-08-21T03:23:01.184Z,629.00
2023-08-21T03:24:03.170Z,628.00
2023-08-21T03:25:01.192Z,628.00
2023-08-21T03:26:01.154Z,630.00
2023-08-21T03:27:01.148Z,630.00
2023-08-21T03:28:01.135Z,626.00
2023-08-21T03:29:01.141Z,631.00
2023-08-21T03:30:01.151Z,630.00
2023-08-21T03:31:01.174Z,631.00
2023-08-21T03:32:01.112Z,629.00
2023-08-21T03:33:01.173Z,633.00
2023-08-21T03:34:01.108Z,629.00
2023-08-21T03:35:01.096Z,626.00
2023-08-21T03:36:01.081Z,629.00
2023-08-21T03:37:01.092Z,621.00
2023-08-21T03:38:01.095Z,627.00
2023-08-21T03:39:01.065Z,626.00
2023-08-21T03:40:01.061Z,630.00
2023-08-21T03:41:01.067Z,632.00
2023-08-21T03:42:01.051Z,634.00
2023-08-21T03:43:01.045Z,631.00
2023-08-21T03:44:01.031Z,631.00
2023-08-21T03:45:01.064Z,634.00
2023-08-21T03:46:01.057Z,629.00
2023-08-21T03:47:01.010Z,621.00
2023-08-21T03:48:01.049Z,632.00
2023-08-21T03:49:01.004Z,628.00
2023-08-21T03:50:01.005Z,629.00
2023-08-21T03:51:01.003Z,631.00
2023-08-21T03:52:00.974Z,628.00
2023-08-21T03:53:00.982Z,630.00
2023-08-21T03:54:00.972Z,625.00
2023-08-21T03:55:00.983Z,628.00
2023-08-21T03:56:00.950Z,627.00
2023-08-21T03:57:00.947Z,625.00
2023-08-21T03:58:00.948Z,631.00
2023-08-21T03:59:00.935Z,627.00
2023-08-21T04:00:00.949Z,632.00
2023-08-21T04:01:00.931Z,627.00
2023-08-21T04:02:00.913Z,622.00
2023-08-21T04:03:00.962Z,632.00
2023-08-21T04:04:00.952Z,628.00
2023-08-21T04:05:00.949Z,631.00
2023-08-21T04:06:00.897Z,625.00
2023-08-21T04:07:00.892Z,623.00
2023-08-21T04:08:00.873Z,626.00
2023-08-21T04:09:00.867Z,631.00
2023-08-21T04:10:00.860Z,622.00
2023-08-21T04:11:00.858Z,625.00
2023-08-21T04:12:00.866Z,629.00
2023-08-21T04:13:02.497Z,627.00
2023-08-21T04:14:00.845Z,628.00
2023-08-21T04:15:00.889Z,628.00
2023-08-21T04:16:00.968Z,629.00
2023-08-21T04:17:00.826Z,631.00
2023-08-21T04:18:00.896Z,633.00
2023-08-21T04:19:00.817Z,622.00
2023-08-21T04:20:00.842Z,631.00
2023-08-21T04:21:00.824Z,624.00
2023-08-21T04:22:00.809Z,634.00
2023-08-21T04:23:00.800Z,630.00
2023-08-21T04:24:00.795Z,627.00
2023-08-21T04:25:00.782Z,625.00
2023-08-21T04:26:00.781Z,626.00
2023-08-21T04:27:00.787Z,619.00
2023-08-21T04:28:00.761Z,630.00
2023-08-21T04:29:00.768Z,625.00
2023-08-21T04:30:00.783Z,630.00
2023-08-21T04:31:00.783Z,625.00
2023-08-21T04:32:00.805Z,624.00
2023-08-21T04:33:00.818Z,619.00
2023-08-21T04:34:00.754Z,624.00
2023-08-21T04:35:00.727Z,625.00
2023-08-21T04:36:00.728Z,625.00
2023-08-21T04:37:00.721Z,624.00
2023-08-21T04:38:00.723Z,625.00
2023-08-21T04:39:00.715Z,621.00
2023-08-21T04:40:00.698Z,624.00
2023-08-21T04:41:00.704Z,627.00
2023-08-21T04:42:00.683Z,626.00
2023-08-21T04:43:00.696Z,620.00
2023-08-21T04:44:00.674Z,622.00
2023-08-21T04:45:00.668Z,623.00
2023-08-21T04:46:00.729Z,617.00
2023-08-21T04:47:00.664Z,623.00
2023-08-21T04:48:00.684Z,618.00
2023-08-21T04:49:00.639Z,620.00
2023-08-21T04:50:00.642Z,623.00
2023-08-21T04:51:00.638Z,625.00
2023-08-21T04:52:00.616Z,619.00
2023-08-21T04:53:00.623Z,620.00
2023-08-21T04:54:00.612Z,616.00
2023-08-21T04:55:00.597Z,620.00
2023-08-21T04:56:00.600Z,624.00
2023-08-21T04:57:00.601Z,620.00
2023-08-21T04:58:00.596Z,621.00
2023-08-21T04:59:00.572Z,622.00
2023-08-21T05:00:00.625Z,613.00
2023-08-21T05:01:00.627Z,622.00
2023-08-21T05:02:00.565Z,621.00
2023-08-21T05:03:00.641Z,620.00
2023-08-21T05:04:00.569Z,620.00
2023-08-21T05:05:00.538Z,615.00
2023-08-21T05:06:00.534Z,619.00
2023-08-21T05:07:00.564Z,617.00
2023-08-21T05:08:00.524Z,617.00
2023-08-21T05:09:00.522Z,621.00
2023-08-21T05:10:00.536Z,613.00
2023-08-21T05:11:00.522Z,617.00
2023-08-21T05:12:00.507Z,618.00
2023-08-21T05:13:00.486Z,615.00
2023-08-21T05:14:02.777Z,611.00
2023-08-21T05:15:00.603Z,612.00
2023-08-21T05:16:00.707Z,612.00
2023-08-21T05:17:00.709Z,612.00
2023-08-21T05:18:00.785Z,615.00
2023-08-21T05:19:00.798Z,622.00
2023-08-21T05:20:00.803Z,621.00
2023-08-21T05:21:00.800Z,617.00
2023-08-21T05:22:00.791Z,620.00
2023-08-21T05:23:00.781Z,614.00
2023-08-21T05:24:00.817Z,615.00
2023-08-21T05:25:00.777Z,620.00
2023-08-21T05:26:00.794Z,610.00
2023-08-21T05:27:01.724Z,616.00
2023-08-21T05:28:00.774Z,613.00
2023-08-21T05:29:00.783Z,616.00
2023-08-21T05:30:00.768Z,609.00
2023-08-21T05:31:00.801Z,618.00
2023-08-21T05:32:00.783Z,615.00
2023-08-21T05:33:00.801Z,616.00
2023-08-21T05:34:00.746Z,612.00
2023-08-21T05:35:00.759Z,619.00
2023-08-21T05:36:00.746Z,615.00
2023-08-21T05:37:00.742Z,613.00
2023-08-21T05:38:00.745Z,615.00
2023-08-21T05:39:00.734Z,611.00
2023-08-21T05:40:00.729Z,611.00
2023-08-21T05:41:00.728Z,613.00
2023-08-21T05:42:00.749Z,610.00
2023-08-21T05:43:00.739Z,612.00
2023-08-21T05:44:00.729Z,605.00
2023-08-21T05:45:00.716Z,608.00
2023-08-21T05:46:00.743Z,613.00
2023-08-21T05:47:00.764Z,614.00
2023-08-21T05:48:00.807Z,607.00
2023-08-21T05:49:00.734Z,611.00
2023-08-21T05:50:00.724Z,612.00
2023-08-21T05:51:00.714Z,612.00
2023-08-21T05:52:00.741Z,608.00
2023-08-21T05:53:00.741Z,607.00
2023-08-21T05:54:00.747Z,614.00
2023-08-21T05:55:00.734Z,609.00
2023-08-21T05:56:00.731Z,610.00
2023-08-21T05:57:00.794Z,611.00
2023-08-21T05:58:00.732Z,609.00
2023-08-21T05:59:00.721Z,609.00
2023-08-21T06:00:00.716Z,607.00
2023-08-21T06:01:00.772Z,607.00
2023-08-21T06:02:00.772Z,609.00
2023-08-21T06:03:00.744Z,614.00
2023-08-21T06:04:01.584Z,606.00
2023-08-21T06:05:00.704Z,602.00
2023-08-21T06:06:00.702Z,609.00
2023-08-21T06:07:00.693Z,605.00
2023-08-21T06:08:00.711Z,603.00
2023-08-21T06:09:00.680Z,607.00
2023-08-21T06:10:00.681Z,604.00
2023-08-21T06:11:00.679Z,605.00
2023-08-21T06:12:00.672Z,606.00
2023-08-21T06:13:00.705Z,611.00
2023-08-21T06:14:00.674Z,608.00
2023-08-21T06:15:00.654Z,608.00
2023-08-21T06:16:00.654Z,610.00
2023-08-21T06:17:00.742Z,604.00
2023-08-21T06:18:00.705Z,605.00
2023-08-21T06:19:00.686Z,601.00
2023-08-21T06:20:00.694Z,605.00
2023-08-21T06:21:00.680Z,602.00
2023-08-21T06:22:00.676Z,600.00
2023-08-21T06:23:00.700Z,601.00
2023-08-21T06:24:00.687Z,607.00
2023-08-21T06:25:00.737Z,602.00
2023-08-21T06:26:00.712Z,599.00
2023-08-21T06:27:00.746Z,602.00
2023-08-21T06:28:00.751Z,607.00
2023-08-21T06:29:00.753Z,599.00
2023-08-21T06:30:00.779Z,603.00
2023-08-21T06:31:00.832Z,599.00
2023-08-21T06:32:00.766Z,597.00
2023-08-21T06:33:00.824Z,600.00
2023-08-21T06:34:00.751Z,602.00
2023-08-21T06:35:00.755Z,601.00
2023-08-21T06:36:00.780Z,601.00
2023-08-21T06:37:00.779Z,603.00
2023-08-21T06:38:00.802Z,602.00
2023-08-21T06:39:00.805Z,600.00
2023-08-21T06:40:00.820Z,601.00
2023-08-21T06:41:02.658Z,597.00
2023-08-21T06:42:00.811Z,608.00
2023-08-21T06:43:00.806Z,599.00
2023-08-21T06:44:00.797Z,600.00
2023-08-21T06:45:00.794Z,602.00
2023-08-21T06:46:00.775Z,602.00
2023-08-21T06:47:00.814Z,604.00
2023-08-21T06:48:00.867Z,595.00
2023-08-21T06:49:00.760Z,594.00
2023-08-21T06:50:00.753Z,603.00
2023-08-21T06:51:00.757Z,598.00
2023-08-21T06:52:00.733Z,606.00
2023-08-21T06:53:00.739Z,595.00
2023-08-21T06:54:00.724Z,597.00
2023-08-21T06:55:00.738Z,594.00
2023-08-21T06:56:00.713Z,600.00
2023-08-21T06:57:00.715Z,594.00
2023-08-21T06:58:00.717Z,598.00
2023-08-21T06:59:00.697Z,594.00
2023-08-21T07:00:00.697Z,597.00
2023-08-21T07:01:00.731Z,597.00
2023-08-21T07:02:00.690Z,601.00
2023-08-21T07:03:00.741Z,600.00
2023-08-21T07:04:00.678Z,592.00
2023-08-21T07:05:00.668Z,600.00
2023-08-21T07:06:00.692Z,595.00
2023-08-21T07:07:00.659Z,595.00
2023-08-21T07:08:00.713Z,596.00
2023-08-21T07:09:00.650Z,598.00
2023-08-21T07:10:00.659Z,597.00
2023-08-21T07:11:00.635Z,595.00
2023-08-21T07:12:00.638Z,594.00
2023-08-21T07:13:00.619Z,593.00
2023-08-21T07:14:00.619Z,592.00
2023-08-21T07:15:00.650Z,595.00
2023-08-21T07:16:00.645Z,592.00
2023-08-21T07:17:00.592Z,598.00
2023-08-21T07:18:00.631Z,592.00
2023-08-21T07:19:00.584Z,594.00
2023-08-21T07:20:00.598Z,591.00
2023-08-21T07:21:00.569Z,594.00
2023-08-21T07:22:00.587Z,590.00
2023-08-21T07:23:00.552Z,591.00
2023-08-21T07:24:00.549Z,589.00
2023-08-21T07:25:00.564Z,591.00
2023-08-21T07:26:00.543Z,591.00
2023-08-21T07:27:00.542Z,595.00
2023-08-21T07:28:00.536Z,590.00
2023-08-21T07:29:00.674Z,594.00
2023-08-21T07:30:00.619Z,594.00
2023-08-21T07:31:00.676Z,587.00
2023-08-21T07:32:00.689Z,593.00
2023-08-21T07:33:00.764Z,589.00
2023-08-21T07:34:00.804Z,591.00
2023-08-21T07:35:00.836Z,589.00
2023-08-21T07:36:00.882Z,590.00
2023-08-21T07:37:00.949Z,587.00
2023-08-21T07:38:01.004Z,591.00
2023-08-21T07:39:01.063Z,592.00
2023-08-21T07:40:01.123Z,588.00
2023-08-21T07:41:01.191Z,586.00
2023-08-21T07:42:01.250Z,586.00
2023-08-21T07:43:01.300Z,583.00
2023-08-21T07:44:01.376Z,589.00
2023-08-21T07:45:01.418Z,586.00
2023-08-21T07:46:01.500Z,587.00
2023-08-21T07:47:01.543Z,584.00
2023-08-21T07:48:14.379Z,579.00
2023-08-21T07:49:02.608Z,580.00
2023-08-21T07:50:01.581Z,581.00
2023-08-21T07:51:01.584Z,583.00
2023-08-21T07:52:01.569Z,584.00
2023-08-21T07:53:01.568Z,591.00
2023-08-21T07:54:01.568Z,583.00
2023-08-21T07:55:01.566Z,585.00
2023-08-21T07:56:01.541Z,585.00
2023-08-21T07:57:01.581Z,585.00
2023-08-21T07:58:01.649Z,585.00
2023-08-21T07:59:01.691Z,586.00
2023-08-21T08:00:01.744Z,586.00
2023-08-21T08:01:01.811Z,582.00
2023-08-21T08:02:01.939Z,585.00
2023-08-21T08:03:02.007Z,586.00
2023-08-21T08:04:02.017Z,582.00
2023-08-21T08:05:02.009Z,582.00
2023-08-21T08:06:02.043Z,584.00
2023-08-21T08:07:02.108Z,582.00
2023-08-21T08:08:02.157Z,589.00
2023-08-21T08:09:02.233Z,580.00
2023-08-21T08:10:02.235Z,583.00
2023-08-21T08:11:02.312Z,585.00
2023-08-21T08:12:02.325Z,589.00
2023-08-21T08:13:02.385Z,585.00
2023-08-21T08:14:02.450Z,585.00
2023-08-21T08:15:02.510Z,590.00
2023-08-21T08:16:02.607Z,588.00
2023-08-21T08:17:02.620Z,587.00
2023-08-21T08:18:02.702Z,584.00
2023-08-21T08:19:02.702Z,585.00
2023-08-21T08:20:02.777Z,583.00
2023-08-21T08:21:02.823Z,583.00
2023-08-21T08:22:02.880Z,584.00
2023-08-21T08:23:02.919Z,586.00
2023-08-21T08:24:02.968Z,580.00
2023-08-21T08:25:03.040Z,581.00
2023-08-21T08:26:03.069Z,583.00
2023-08-21T08:27:03.137Z,582.00
2023-08-21T08:28:03.170Z,581.00
2023-08-21T08:29:03.230Z,585.00
2023-08-21T08:30:03.285Z,581.00
2023-08-21T08:31:03.323Z,582.00
2023-08-21T08:32:03.466Z,582.00
2023-08-21T08:33:03.473Z,583.00
2023-08-21T08:34:03.473Z,581.00
2023-08-21T08:35:03.501Z,586.00
2023-08-21T08:36:03.546Z,577.00
2023-08-21T08:37:03.587Z,580.00
2023-08-21T08:38:03.635Z,583.00
2023-08-21T08:39:03.689Z,587.00
2023-08-21T08:40:03.720Z,578.00
2023-08-21T08:41:03.770Z,573.00
2023-08-21T08:42:03.801Z,581.00
2023-08-21T08:43:03.841Z,576.00
2023-08-21T08:44:03.885Z,578.00
2023-08-21T08:45:03.926Z,578.00
2023-08-21T08:46:04.019Z,577.00
2023-08-21T08:47:04.015Z,575.00
2023-08-21T08:48:04.118Z,579.00
2023-08-21T08:49:04.102Z,573.00
2023-08-21T08:50:04.142Z,574.00
2023-08-21T08:51:04.172Z,571.00
2023-08-21T08:52:04.206Z,578.00
2023-08-21T08:53:15.356Z,572.00
2023-08-21T08:54:05.237Z,573.00
2023-08-21T08:55:04.249Z,573.00
2023-08-21T08:56:04.230Z,575.00
2023-08-21T08:57:04.222Z,572.00
2023-08-21T08:58:04.219Z,573.00
2023-08-21T08:59:04.215Z,572.00
2023-08-21T09:00:04.219Z,571.00
2023-08-21T09:01:04.202Z,574.00
2023-08-21T09:02:04.208Z,576.00
2023-08-21T09:03:04.232Z,572.00
2023-08-21T09:04:04.332Z,571.00
2023-08-21T09:05:04.177Z,572.00
2023-08-21T09:06:04.174Z,570.00
2023-08-21T09:07:04.171Z,566.00
2023-08-21T09:08:04.207Z,574.00
2023-08-21T09:09:04.243Z,572.00
2023-08-21T09:10:04.292Z,569.00
2023-08-21T09:11:04.328Z,576.00
2023-08-21T09:12:04.376Z,573.00
2023-08-21T09:13:04.436Z,569.00
2023-08-21T09:14:04.450Z,573.00
2023-08-21T09:15:04.521Z,578.00
2023-08-21T09:16:04.505Z,575.00
2023-08-21T09:17:04.522Z,573.00
2023-08-21T09:18:04.593Z,573.00
2023-08-21T09:19:04.579Z,576.00
2023-08-21T09:20:04.606Z,577.00
2023-08-21T09:21:04.647Z,573.00
2023-08-21T09:22:04.672Z,579.00
2023-08-21T09:23:04.699Z,572.00
2023-08-21T09:24:04.733Z,581.00
2023-08-21T09:25:04.757Z,579.00
2023-08-21T09:26:04.794Z,576.00
2023-08-21T09:27:04.820Z,577.00
2023-08-21T09:28:04.849Z,582.00
2023-08-21T09:29:04.893Z,582.00
2023-08-21T09:30:04.911Z,583.00
2023-08-21T09:31:04.976Z,584.00
2023-08-21T09:32:04.967Z,583.00
2023-08-21T09:33:05.012Z,580.00
2023-08-21T09:34:05.038Z,580.00
2023-08-21T09:35:05.076Z,583.00
2023-08-21T09:36:05.072Z,579.00
2023-08-21T09:37:05.093Z,578.00
2023-08-21T09:38:05.106Z,580.00
2023-08-21T09:39:05.135Z,583.00
2023-08-21T09:40:05.144Z,581.00
2023-08-21T09:41:05.170Z,582.00
2023-08-21T09:42:05.188Z,580.00
2023-08-21T09:43:05.201Z,585.00
2023-08-21T09:44:05.214Z,585.00
2023-08-21T09:45:05.224Z,582.00
2023-08-21T09:46:05.239Z,584.00
2023-08-21T09:47:05.253Z,579.00
2023-08-21T09:48:05.280Z,575.00
2023-08-21T09:49:05.275Z,583.00
2023-08-21T09:50:05.282Z,575.00
2023-08-21T09:51:05.286Z,578.00
2023-08-21T09:52:05.302Z,580.00
2023-08-21T09:53:05.310Z,580.00
2023-08-21T09:54:05.333Z,578.00
2023-08-21T09:55:05.297Z,578.00
2023-08-21T09:56:05.303Z,572.00
2023-08-21T09:57:05.293Z,578.00
2023-08-21T09:58:05.300Z,575.00
2023-08-21T09:59:05.339Z,574.00
2023-08-21T10:00:05.301Z,579.00
2023-08-21T10:01:05.343Z,574.00
2023-08-21T10:02:05.298Z,577.00
2023-08-21T10:03:05.345Z,573.00
2023-08-21T10:04:05.340Z,572.00
2023-08-21T10:05:05.285Z,569.00
2023-08-21T10:06:05.273Z,571.00
2023-08-21T10:07:05.272Z,571.00
2023-08-21T10:08:05.267Z,569.00
2023-08-21T10:09:05.270Z,573.00
2023-08-21T10:10:05.273Z,569.00
2023-08-21T10:11:05.334Z,573.00
2023-08-21T10:12:05.264Z,572.00
2023-08-21T10:13:06.250Z,573.00
2023-08-21T10:14:05.282Z,573.00
2023-08-21T10:15:05.307Z,572.00
2023-08-21T10:16:05.461Z,573.00
2023-08-21T10:17:05.352Z,578.00
2023-08-21T10:18:05.357Z,569.00
2023-08-21T10:19:05.343Z,578.00
2023-08-21T10:20:05.375Z,575.00
2023-08-21T10:21:05.396Z,577.00
2023-08-21T10:22:05.436Z,574.00
2023-08-21T10:23:05.419Z,577.00
2023-08-21T10:24:05.462Z,577.00
2023-08-21T10:25:05.487Z,578.00
2023-08-21T10:26:05.553Z,581.00
2023-08-21T10:27:05.544Z,571.00
2023-08-21T10:28:05.563Z,578.00
2023-08-21T10:29:05.602Z,579.00
2023-08-21T10:30:05.636Z,576.00
2023-08-21T10:31:07.057Z,574.00
2023-08-21T10:32:05.743Z,579.00
2023-08-21T10:33:05.911Z,579.00
2023-08-21T10:34:05.866Z,580.00
2023-08-21T10:35:05.880Z,577.00
2023-08-21T10:36:05.941Z,580.00
2023-08-21T10:37:05.987Z,578.00
2023-08-21T10:38:06.026Z,581.00
2023-08-21T10:39:06.076Z,574.00
2023-08-21T10:40:06.129Z,586.00
2023-08-21T10:41:06.168Z,582.00
2023-08-21T10:42:06.213Z,581.00
2023-08-21T10:43:06.249Z,578.00
2023-08-21T10:44:06.290Z,583.00
2023-08-21T10:45:06.333Z,583.00
2023-08-21T10:46:06.413Z,586.00
2023-08-21T10:47:06.447Z,586.00
2023-08-21T10:48:06.548Z,583.00
2023-08-21T10:49:06.553Z,584.00
2023-08-21T10:50:06.604Z,584.00
2023-08-21T10:51:06.660Z,581.00
2023-08-21T10:52:06.712Z,588.00
2023-08-21T10:53:06.750Z,584.00
2023-08-21T10:54:06.828Z,585.00
2023-08-21T10:55:06.871Z,588.00
2023-08-21T10:56:06.940Z,585.00
2023-08-21T10:57:07.013Z,589.00
2023-08-21T10:58:07.057Z,587.00
2023-08-21T10:59:07.127Z,586.00
2023-08-21T11:00:07.182Z,588.00
2023-08-21T11:01:07.244Z,587.00
2023-08-21T11:02:07.798Z,591.00
2023-08-21T11:03:07.411Z,589.00
2023-08-21T11:04:07.412Z,588.00
2023-08-21T11:05:07.528Z,590.00
2023-08-21T11:06:07.608Z,592.00
2023-08-21T11:07:07.604Z,590.00
2023-08-21T11:08:07.658Z,583.00
2023-08-21T11:09:07.731Z,586.00
2023-08-21T11:10:09.586Z,586.00
2023-08-21T11:11:07.783Z,586.00
2023-08-21T11:12:07.773Z,587.00
2023-08-21T11:13:07.785Z,587.00
2023-08-21T11:14:07.767Z,591.00
2023-08-21T11:15:07.761Z,587.00
2023-08-21T11:16:07.757Z,590.00
2023-08-21T11:17:07.760Z,591.00
2023-08-21T11:18:07.762Z,589.00
2023-08-21T11:19:07.744Z,586.00
2023-08-21T11:20:07.726Z,583.00
2023-08-21T11:21:07.708Z,586.00
2023-08-21T11:22:07.710Z,588.00
2023-08-21T11:23:07.744Z,591.00
2023-08-21T11:24:07.689Z,588.00
2023-08-21T11:25:07.687Z,586.00
2023-08-21T11:26:19.256Z,587.00
2023-08-21T11:27:08.678Z,588.00
2023-08-21T11:28:07.686Z,588.00
2023-08-21T11:29:07.655Z,588.00
2023-08-21T11:30:07.658Z,588.00
2023-08-21T11:31:07.644Z,590.00
2023-08-21T11:32:07.639Z,594.00
2023-08-21T11:33:07.694Z,592.00
2023-08-21T11:34:18.498Z,590.00
2023-08-21T11:35:08.623Z,591.00
2023-08-21T11:36:07.624Z,592.00
2023-08-21T11:37:07.613Z,591.00
2023-08-21T11:38:10.213Z,588.00
2023-08-21T11:39:07.607Z,598.00
2023-08-21T11:40:07.602Z,592.00
2023-08-21T11:41:07.605Z,591.00
2023-08-21T11:42:07.577Z,599.00
2023-08-21T11:43:07.581Z,591.00
2023-08-21T11:44:07.582Z,584.00
2023-08-21T11:45:09.773Z,590.00
2023-08-21T11:46:07.588Z,590.00
2023-08-21T11:47:07.543Z,591.00
2023-08-21T11:48:07.582Z,592.00
2023-08-21T11:49:07.545Z,588.00
2023-08-21T11:50:07.625Z,593.00
2023-08-21T11:51:07.538Z,593.00
2023-08-21T11:52:07.526Z,585.00
2023-08-21T11:53:07.524Z,587.00
2023-08-21T11:54:07.507Z,587.00
2023-08-21T11:55:07.493Z,587.00
2023-08-21T11:56:07.489Z,588.00
2023-08-21T11:57:07.502Z,589.00
2023-08-21T11:58:07.480Z,587.00
2023-08-21T11:59:07.490Z,587.00
2023-08-21T12:00:07.472Z,586.00
2023-08-21T12:01:07.471Z,591.00
2023-08-21T12:02:07.453Z,586.00
2023-08-21T12:03:07.518Z,589.00
2023-08-21T12:04:07.459Z,586.00
2023-08-21T12:05:07.428Z,584.00
2023-08-21T12:06:07.438Z,586.00
2023-08-21T12:07:07.416Z,586.00
2023-08-21T12:08:07.423Z,591.00
2023-08-21T12:09:07.432Z,592.00
2023-08-21T12:10:07.423Z,590.00
2023-08-21T12:11:07.388Z,588.00
2023-08-21T12:12:07.425Z,586.00
2023-08-21T12:13:07.418Z,590.00
2023-08-21T12:14:07.380Z,585.00
2023-08-21T12:15:07.387Z,586.00
2023-08-21T12:16:07.382Z,586.00
2023-08-21T12:17:07.368Z,590.00
2023-08-21T12:18:07.402Z,587.00
2023-08-21T12:19:07.355Z,593.00
2023-08-21T12:20:07.347Z,588.00
2023-08-21T12:21:07.343Z,586.00
2023-08-21T12:22:07.339Z,591.00
2023-08-21T12:23:07.324Z,596.00
2023-08-21T12:24:07.319Z,592.00
2023-08-21T12:25:07.397Z,594.00
2023-08-21T12:26:07.305Z,595.00
2023-08-21T12:27:07.302Z,597.00
2023-08-21T12:29:07.288Z,592.00
2023-08-21T12:30:07.320Z,590.00